Etusivu
METAR-TAF:

METAR-TAF

Lentoasemat :

Ventspils, Latvia

Leveyspiiri: 57-21-28N, Pituuspiiri: 021-32-39E, korkeus merenpinnasta: 6 m

Tämänhetkinen sää

Tämä raportti tehtiin 30 minuuttia sitten, kello 02.50 UTC
Tuuli 9 kn lounaasta
Lämpötila 18°C
Kosteus 100%
Ilmanpaine 1011 hPa
Näkyvyys: 7000 m
Hajanaisia pilviä 900 ft:n korkeudessa
Hajonneita pilviä 1500 ft:n korkeudessa
Pilvistä 4900 ft:n korkeudessa
heikkoa sadetta

METAR: EVVA 200250Z AUTO 22009KT 7000 -RA SCT009 BKN015 OVC049 18/18 Q1011 RERA

Aika: 06:20 (03:20 UTC)


TAF: puuttuu

Säähavainnot ja -ennusteet yli 4000 lentoasemalta (METAR- ja TAF-raportit).

Käytössä olevat sääasemat on merkitty karttaan keltaisilla ja punaisilla pisteillä.

Aseta hiiri pisteen päälle nähdäksesi sääaseman nimen.

Klikkaa sitten nähdäksesi säähavainnot ja -ennusteet.

Kartan vaihtaminen: klikkaa mustalla rastilla varustettuja vihreitä pisteitä, niin voit zoomata sisään; viivalla varustettua vihreää pistettä, niin voit zoomata ulos tai vihreitä nuolia, niin pääset viereisille kartoille.


METAR-TAF: